Time;durP1;ratioP1;P1;durP2;ratioP2;P2;SDS_P1;SDS_P2;PMS_P1;PMS_P2;Temp;Humidity;BMP_temperature;BMP_pressure;BME280_temperature;BME280_humidity;BME280_pressure;Samples;Min_cycle;Max_cycle;Signal;HPM_P1;HPM_P2
2021/05/27 00:00:59;;;;;;;79.28;46.03;;;8.60;99.90;;;;;;5047295;28;20045;-73
2021/05/27 00:03:26;;;;;;;78.07;44.38;;;8.60;99.90;;;;;;5050388;28;20532;-74
2021/05/27 00:05:52;;;;;;;72.13;42.92;;;8.60;99.90;;;;;;5041566;28;20103;-75
2021/05/27 00:08:19;;;;;;;74.30;42.15;;;8.60;99.90;;;;;;5036787;28;20059;-74
2021/05/27 00:10:47;;;;;;;66.40;39.03;;;8.60;99.90;;;;;;5044165;28;20048;-75
2021/05/27 00:13:14;;;;;;;68.85;39.10;;;8.50;99.90;;;;;;5044895;28;20122;-74
2021/05/27 00:15:41;;;;;;;73.05;41.75;;;8.60;99.90;;;;;;5021308;28;20537;-75
2021/05/27 00:18:08;;;;;;;79.22;45.42;;;8.60;99.90;;;;;;5027960;28;20437;-75
2021/05/27 00:20:35;;;;;;;59.53;36.70;;;8.70;99.90;;;;;;5045229;28;20115;-75
2021/05/27 00:23:02;;;;;;;69.18;40.80;;;8.60;99.90;;;;;;5049747;28;20452;-75
2021/05/27 00:25:29;;;;;;;67.93;39.33;;;8.60;99.90;;;;;;5042063;28;20098;-75
2021/05/27 00:27:55;;;;;;;88.20;47.30;;;8.60;99.90;;;;;;5044360;28;20052;-75
2021/05/27 00:30:22;;;;;;;81.75;47.22;;;8.70;99.90;;;;;;5044839;28;20087;-75
2021/05/27 00:32:49;;;;;;;83.88;44.00;;;8.70;99.90;;;;;;5040134;28;20448;-75
2021/05/27 00:35:16;;;;;;;73.50;43.42;;;8.70;99.90;;;;;;5045530;28;20575;-75
2021/05/27 00:37:43;;;;;;;78.60;44.40;;;8.70;99.90;;;;;;5044857;28;20052;-73
2021/05/27 00:40:13;;;;;;;75.80;41.78;;;8.60;99.90;;;;;;5049279;28;20048;-73
2021/05/27 00:42:41;;;;;;;74.47;41.17;;;8.60;99.90;;;;;;5046669;28;20041;-73
2021/05/27 00:45:11;;;;;;;75.80;43.00;;;8.60;99.90;;;;;;5046917;28;20106;-73
2021/05/27 00:47:39;;;;;;;59.63;35.92;;;8.60;99.90;;;;;;5041036;28;20548;-73
2021/05/27 00:50:20;;;;;;;62.03;36.75;;;8.60;99.90;;;;;;5047644;28;20088;-74
2021/05/27 00:52:51;;;;;;;61.38;37.22;;;8.60;99.90;;;;;;5039056;28;20106;-73
2021/05/27 00:55:22;;;;;;;66.07;37.28;;;8.60;99.90;;;;;;5042896;28;20045;-74
2021/05/27 00:57:50;;;;;;;68.38;39.33;;;8.70;99.90;;;;;;5042972;28;20110;-73
2021/05/27 01:00:20;;;;;;;66.78;39.05;;;8.60;99.90;;;;;;5053547;28;20603;-76
2021/05/27 01:02:47;;;;;;;68.50;38.25;;;8.70;99.90;;;;;;5029909;28;20296;-73
2021/05/27 01:05:16;;;;;;;70.43;37.88;;;8.70;99.90;;;;;;5063263;28;20052;-74
2021/05/27 01:07:44;;;;;;;58.70;31.85;;;8.70;99.90;;;;;;5058351;28;20084;-75
2021/05/27 01:10:14;;;;;;;77.15;41.47;;;8.70;99.90;;;;;;5033097;28;20080;-74
2021/05/27 01:12:41;;;;;;;64.88;37.45;;;8.70;99.90;;;;;;5040441;28;20049;-73
2021/05/27 01:15:32;;;;;;;68.88;39.63;;;8.70;99.90;;;;;;5041709;28;20548;-73
2021/05/27 01:18:11;;;;;;;69.40;38.40;;;8.70;99.90;;;;;;5045356;28;20543;-77
2021/05/27 01:20:41;;;;;;;76.13;42.75;;;8.70;99.90;;;;;;5042190;28;20459;-73
2021/05/27 01:23:09;;;;;;;64.55;35.95;;;8.70;99.90;;;;;;5023208;28;20076;-74
2021/05/27 01:25:41;;;;;;;70.55;38.22;;;8.70;99.90;;;;;;5010264;28;20124;-76
2021/05/27 01:28:08;;;;;;;75.75;38.45;;;8.70;99.90;;;;;;5040346;28;20045;-73
2021/05/27 01:30:35;;;;;;;62.22;35.53;;;8.70;99.90;;;;;;5019829;28;20114;-75
2021/05/27 01:33:03;;;;;;;69.68;37.35;;;8.70;99.90;;;;;;5025206;28;20410;-74
2021/05/27 01:35:32;;;;;;;79.10;38.55;;;8.70;99.90;;;;;;5028239;28;20120;-73
2021/05/27 01:37:59;;;;;;;72.10;38.67;;;8.70;99.90;;;;;;5048849;28;20417;-75
2021/05/27 01:40:26;;;;;;;72.45;39.28;;;8.70;99.90;;;;;;5039263;28;20081;-75
2021/05/27 01:42:56;;;;;;;63.70;36.55;;;8.70;99.90;;;;;;5026630;28;20041;-74
2021/05/27 01:45:23;;;;;;;69.85;38.28;;;8.60;99.90;;;;;;5011488;28;20114;-76
2021/05/27 01:47:54;;;;;;;71.47;39.20;;;8.70;99.90;;;;;;5043864;28;20120;-73
2021/05/27 01:50:21;;;;;;;69.53;37.85;;;8.60;99.90;;;;;;5028364;28;20080;-76
2021/05/27 01:52:50;;;;;;;71.47;38.75;;;8.60;99.90;;;;;;5043425;28;20049;-74
2021/05/27 01:55:17;;;;;;;64.97;34.75;;;8.70;99.90;;;;;;5043332;28;20211;-74
2021/05/27 01:57:44;;;;;;;79.00;39.67;;;8.70;99.90;;;;;;5038878;28;20045;-74
2021/05/27 02:00:12;;;;;;;73.90;39.67;;;8.70;99.90;;;;;;5025612;28;20481;-75
2021/05/27 02:02:53;;;;;;;70.03;37.67;;;8.60;99.90;;;;;;5022571;28;20496;-74
2021/05/27 02:05:24;;;;;;;65.90;32.33;;;8.60;99.90;;;;;;5015526;28;20065;-76
2021/05/27 02:07:50;;;;;;;70.75;38.13;;;8.60;99.90;;;;;;5022746;28;20072;-73
2021/05/27 02:10:27;;;;;;;75.88;37.92;;;8.70;99.90;;;;;;5018514;28;20049;-75
2021/05/27 02:12:57;;;;;;;22.33;13.93;;;8.70;99.90;;;;;;5012821;28;20123;-74
2021/05/27 02:15:25;;;;;;;13.30;7.53;;;8.40;99.90;;;;;;5000889;28;20083;-73
2021/05/27 02:17:52;;;;;;;8.25;5.18;;;8.00;99.90;;;;;;5058558;28;20049;-72
2021/05/27 02:20:20;;;;;;;5.95;3.60;;;7.90;99.90;;;;;;5044082;28;20049;-74
2021/05/27 02:22:47;;;;;;;9.68;4.65;;;7.80;99.90;;;;;;5034626;28;20189;-76
2021/05/27 02:25:37;;;;;;;5.50;2.38;;;7.70;99.90;;;;;;5030735;28;20049;-76
2021/05/27 02:28:08;;;;;;;7.43;2.40;;;7.60;99.90;;;;;;5025611;28;20220;-74
2021/05/27 02:30:36;;;;;;;3.40;2.13;;;7.50;99.90;;;;;;5002500;28;20541;-73
2021/05/27 02:33:08;;;;;;;10.07;2.70;;;7.50;99.90;;;;;;5020338;28;20057;-74
2021/05/27 02:35:36;;;;;;;4.65;2.35;;;7.60;99.90;;;;;;5017738;28;20103;-74
2021/05/27 02:38:03;;;;;;;6.50;2.40;;;7.50;99.90;;;;;;5024695;28;20056;-77
2021/05/27 02:40:34;;;;;;;5.03;3.20;;;7.50;99.90;;;;;;5018740;28;20041;-75
2021/05/27 02:43:02;;;;;;;7.60;3.75;;;7.50;99.90;;;;;;5044322;28;20044;-76
2021/05/27 02:45:32;;;;;;;8.38;5.10;;;7.60;99.90;;;;;;5037630;28;20045;-76
2021/05/27 02:47:59;;;;;;;14.63;6.47;;;7.60;99.90;;;;;;5048460;28;20045;-76
2021/05/27 02:50:27;;;;;;;18.27;8.93;;;7.70;99.90;;;;;;5027196;28;20155;-75
2021/05/27 02:52:55;;;;;;;14.93;8.57;;;7.70;99.90;;;;;;5008775;28;20710;-73
2021/05/27 02:55:22;;;;;;;17.77;9.70;;;7.80;99.90;;;;;;5001552;28;20041;-74
2021/05/27 02:57:50;;;;;;;19.73;10.93;;;7.80;99.90;;;;;;5037525;28;20053;-76
2021/05/27 03:00:17;;;;;;;23.00;11.98;;;7.80;99.90;;;;;;5041484;28;20421;-76
2021/05/27 03:03:00;;;;;;;23.88;12.45;;;7.90;99.90;;;;;;5024668;28;20045;-74
2021/05/27 03:05:27;;;;;;;18.65;10.43;;;8.00;99.90;;;;;;5017623;28;20049;-74
2021/05/27 03:07:55;;;;;;;19.02;11.00;;;7.90;99.90;;;;;;5039176;28;20057;-76
2021/05/27 03:10:22;;;;;;;11.57;7.70;;;8.00;99.90;;;;;;5015377;28;20326;-76
2021/05/27 03:12:50;;;;;;;18.25;9.55;;;8.00;99.90;;;;;;5042601;28;20049;-76
2021/05/27 03:15:20;;;;;;;15.50;9.30;;;8.00;99.90;;;;;;5044061;28;20139;-76
2021/05/27 03:17:47;;;;;;;9.57;7.03;;;8.00;99.90;;;;;;5024955;28;20634;-74
2021/05/27 03:20:14;;;;;;;8.45;5.97;;;8.00;99.90;;;;;;5045079;28;20103;-75
2021/05/27 03:22:42;;;;;;;9.43;6.45;;;8.00;99.90;;;;;;5040760;28;20497;-75
2021/05/27 03:25:11;;;;;;;8.88;5.88;;;8.00;99.90;;;;;;5048927;28;20135;-74
2021/05/27 03:27:38;;;;;;;8.93;6.45;;;8.00;99.90;;;;;;5006552;28;20041;-75
2021/05/27 03:30:06;;;;;;;8.75;6.03;;;8.00;99.90;;;;;;5024229;28;20041;-75
2021/05/27 03:32:35;;;;;;;11.70;6.78;;;8.00;99.90;;;;;;5037285;28;20044;-75
2021/05/27 03:35:04;;;;;;;9.57;7.35;;;8.00;99.90;;;;;;5009599;28;20053;-75
2021/05/27 03:37:31;;;;;;;8.93;6.22;;;8.00;99.90;;;;;;5053484;28;20145;-75
2021/05/27 03:40:11;;;;;;;13.20;7.70;;;8.00;99.90;;;;;;5028977;28;20674;-75
2021/05/27 03:42:48;;;;;;;12.45;7.50;;;8.00;99.90;;;;;;5044220;28;20057;-75
2021/05/27 03:45:17;;;;;;;12.73;8.70;;;8.00;99.90;;;;;;5047689;28;20067;-75
2021/05/27 03:47:56;;;;;;;8.98;6.78;;;8.00;99.90;;;;;;5024943;28;20072;-76
2021/05/27 03:50:26;;;;;;;10.00;7.22;;;8.00;99.90;;;;;;5039997;28;20059;-75
2021/05/27 03:52:54;;;;;;;9.77;6.80;;;8.00;99.90;;;;;;5027302;28;20085;-75
2021/05/27 03:55:22;;;;;;;9.43;6.75;;;8.00;99.90;;;;;;5020082;28;20037;-74
2021/05/27 03:57:51;;;;;;;10.90;7.43;;;7.90;99.90;;;;;;5042090;28;20064;-74
2021/05/27 04:03:18;;;;;;;10.07;6.32;;;7.90;99.90;;;;;;5041813;28;20059;-75
2021/05/27 04:08:34;;;;;;;8.38;5.97;;;7.90;99.90;;;;;;5013920;28;20512;-75
2021/05/27 04:11:01;;;;;;;10.93;7.50;;;7.90;99.90;;;;;;5044755;28;20071;-76
2021/05/27 04:13:30;;;;;;;9.00;5.80;;;7.90;99.90;;;;;;5037693;28;20135;-76
2021/05/27 04:15:57;;;;;;;11.52;7.55;;;7.90;99.90;;;;;;5043184;28;20094;-76
2021/05/27 04:18:25;;;;;;;11.10;6.63;;;7.90;99.90;;;;;;5046204;28;20057;-76
2021/05/27 04:20:56;;;;;;;9.98;6.80;;;7.80;99.90;;;;;;5039860;28;20060;-76
2021/05/27 04:23:36;;;;;;;7.05;5.20;;;7.80;99.90;;;;;;5044806;28;20140;-76
2021/05/27 04:26:04;;;;;;;11.55;5.70;;;7.80;99.90;;;;;;5046715;28;20041;-77
2021/05/27 04:28:32;;;;;;;8.10;5.72;;;7.80;99.90;;;;;;5039110;28;20049;-76
2021/05/27 04:31:11;;;;;;;8.35;6.68;;;7.80;99.90;;;;;;5044808;28;20044;-76
2021/05/27 04:33:47;;;;;;;8.23;5.95;;;7.80;99.90;;;;;;5028199;28;20059;-76
2021/05/27 04:36:16;;;;;;;7.72;5.40;;;7.80;99.90;;;;;;5040506;28;20057;-75
2021/05/27 04:38:44;;;;;;;7.15;5.75;;;7.80;99.90;;;;;;5044080;28;20056;-75
2021/05/27 04:41:11;;;;;;;8.43;5.35;;;7.70;99.90;;;;;;5048157;28;20049;-75
2021/05/27 04:43:39;;;;;;;7.60;5.78;;;7.80;99.90;;;;;;5036610;28;20045;-75
2021/05/27 04:46:07;;;;;;;7.47;5.82;;;7.70;99.90;;;;;;5041188;28;20045;-76
2021/05/27 04:48:35;;;;;;;7.65;6.18;;;7.70;99.90;;;;;;5029034;28;20045;-74
2021/05/27 04:51:03;;;;;;;10.55;6.40;;;7.80;99.90;;;;;;5023574;28;20041;-75
2021/05/27 04:53:31;;;;;;;12.98;8.00;;;7.80;99.90;;;;;;5021319;28;20056;-75
2021/05/27 04:55:58;;;;;;;7.57;6.15;;;7.80;99.90;;;;;;5042595;28;20076;-75
2021/05/27 04:58:29;;;;;;;12.38;8.15;;;7.80;99.90;;;;;;5020922;28;20049;-74
2021/05/27 05:01:22;;;;;;;11.27;8.68;;;7.80;99.90;;;;;;5025260;28;20520;-75
2021/05/27 05:03:50;;;;;;;11.05;8.75;;;7.80;99.90;;;;;;5040308;28;20646;-75
2021/05/27 05:06:19;;;;;;;10.88;8.00;;;7.90;99.90;;;;;;5025429;28;20055;-75
2021/05/27 05:08:47;;;;;;;12.10;9.30;;;7.90;99.90;;;;;;5026898;28;20119;-75
2021/05/27 05:11:15;;;;;;;14.07;9.07;;;7.90;99.90;;;;;;5042165;28;20465;-75
2021/05/27 05:13:42;;;;;;;11.43;8.68;;;7.90;99.90;;;;;;5038397;28;20520;-74
2021/05/27 05:16:10;;;;;;;14.38;11.05;;;7.90;99.90;;;;;;5047784;28;20554;-75
2021/05/27 05:18:37;;;;;;;13.88;8.27;;;7.90;99.90;;;;;;5011505;28;20041;-74
2021/05/27 05:21:05;;;;;;;14.52;10.15;;;7.90;99.90;;;;;;5004465;28;20037;-74
2021/05/27 05:23:32;;;;;;;16.10;11.32;;;7.90;99.90;;;;;;5020401;28;20049;-75
2021/05/27 05:26:00;;;;;;;20.58;10.90;;;7.90;99.90;;;;;;5021526;28;20476;-74
2021/05/27 05:28:28;;;;;;;15.20;9.50;;;8.10;99.90;;;;;;5004269;28;20059;-74
2021/05/27 05:30:54;;;;;;;17.63;10.88;;;8.00;99.90;;;;;;5025579;28;20301;-74
2021/05/27 05:33:25;;;;;;;16.45;11.02;;;8.00;99.90;;;;;;4993822;28;20826;-75
2021/05/27 05:35:53;;;;;;;16.83;11.70;;;8.00;99.90;;;;;;5020394;28;20090;-74
2021/05/27 05:38:22;;;;;;;17.42;13.18;;;8.10;99.90;;;;;;5036837;28;20628;-74
2021/05/27 05:40:52;;;;;;;21.90;13.68;;;8.00;99.90;;;;;;5005908;28;20045;-74
2021/05/27 05:43:21;;;;;;;21.13;13.93;;;8.10;99.90;;;;;;5044027;28;20056;-74
2021/05/27 05:45:51;;;;;;;14.45;9.68;;;8.10;99.90;;;;;;4998650;28;20052;-75
2021/05/27 05:48:20;;;;;;;23.17;12.45;;;8.10;99.90;;;;;;5043648;28;20694;-74
2021/05/27 05:50:52;;;;;;;20.10;12.15;;;8.20;99.90;;;;;;5040635;28;20060;-74
2021/05/27 05:53:21;;;;;;;22.30;14.52;;;8.10;99.90;;;;;;5052620;28;20458;-74
2021/05/27 05:55:50;;;;;;;21.48;12.98;;;8.20;99.90;;;;;;5027153;28;20049;-74
2021/05/27 05:58:19;;;;;;;20.42;12.63;;;8.20;99.90;;;;;;5009915;28;20053;-75
2021/05/27 06:00:47;;;;;;;19.95;13.55;;;8.20;99.90;;;;;;5043011;28;20049;-74
2021/05/27 06:03:14;;;;;;;26.58;17.02;;;8.20;99.90;;;;;;5042781;28;20439;-75
2021/05/27 06:06:01;;;;;;;24.10;14.65;;;8.20;99.90;;;;;;5039398;28;20052;-75
2021/05/27 06:08:51;;;;;;;21.65;12.98;;;8.20;99.90;;;;;;5026208;28;20102;-74
2021/05/27 06:11:18;;;;;;;19.33;12.30;;;8.30;99.90;;;;;;5041930;28;20384;-74
2021/05/27 06:13:45;;;;;;;20.80;13.02;;;8.30;99.90;;;;;;5043180;28;20061;-75
2021/05/27 06:16:12;;;;;;;22.88;12.93;;;8.20;99.90;;;;;;5041450;28;20044;-74
2021/05/27 06:18:39;;;;;;;24.38;14.82;;;8.20;99.90;;;;;;5033383;28;20578;-73
2021/05/27 06:21:25;;;;;;;20.90;13.98;;;8.30;99.90;;;;;;5022372;28;20056;-75
2021/05/27 06:23:54;;;;;;;22.65;14.15;;;8.40;99.90;;;;;;5044556;28;20065;-77
2021/05/27 06:26:21;;;;;;;18.17;14.20;;;8.30;99.90;;;;;;5051431;28;20048;-74
2021/05/27 06:28:47;;;;;;;18.48;13.32;;;8.30;99.90;;;;;;5008222;28;20045;-74
2021/05/27 06:31:14;;;;;;;22.23;14.57;;;8.30;99.90;;;;;;5043112;28;20072;-74
2021/05/27 06:33:41;;;;;;;20.15;12.55;;;8.30;99.90;;;;;;5042943;28;20226;-75
2021/05/27 06:36:09;;;;;;;19.65;13.48;;;8.30;99.90;;;;;;5036904;28;20053;-75
2021/05/27 06:38:36;;;;;;;21.42;14.80;;;8.30;99.90;;;;;;5044617;28;20092;-75
2021/05/27 06:41:03;;;;;;;21.23;13.55;;;8.30;99.90;;;;;;5034216;28;20041;-74
2021/05/27 06:43:30;;;;;;;19.55;14.20;;;8.30;99.90;;;;;;5024387;28;20052;-74
2021/05/27 06:45:58;;;;;;;22.15;15.32;;;8.30;99.90;;;;;;5043775;28;20084;-75
2021/05/27 06:48:25;;;;;;;25.75;16.02;;;8.30;99.90;;;;;;5025524;28;20126;-74
2021/05/27 06:50:52;;;;;;;28.67;18.05;;;8.20;99.90;;;;;;5048600;28;20060;-75
2021/05/27 06:53:19;;;;;;;24.00;15.85;;;8.30;99.90;;;;;;5017057;28;20056;-74
2021/05/27 06:55:47;;;;;;;29.55;17.77;;;8.20;99.90;;;;;;5025598;28;20041;-75
2021/05/27 06:58:18;;;;;;;23.15;15.40;;;8.30;99.90;;;;;;5030159;28;20244;-75
2021/05/27 07:00:46;;;;;;;16.88;11.05;;;8.40;99.90;;;;;;5006564;28;20058;-74
2021/05/27 07:03:16;;;;;;;25.33;16.85;;;8.20;99.90;;;;;;5032562;28;20040;-75
2021/05/27 07:05:43;;;;;;;22.85;13.73;;;8.30;99.90;;;;;;5045759;28;20285;-74
2021/05/27 07:08:14;;;;;;;19.98;13.52;;;8.30;99.90;;;;;;5053832;28;20060;-74
2021/05/27 07:10:44;;;;;;;22.58;16.65;;;8.30;99.90;;;;;;5003658;28;20037;-74
2021/05/27 07:13:15;;;;;;;25.90;17.80;;;8.30;99.90;;;;;;5047147;28;20041;-75
2021/05/27 07:15:45;;;;;;;22.10;15.38;;;8.40;99.90;;;;;;5004674;28;20099;-74
2021/05/27 07:18:12;;;;;;;26.27;17.23;;;8.40;99.90;;;;;;4999723;28;20059;-74
2021/05/27 07:20:42;;;;;;;24.58;17.80;;;8.40;99.90;;;;;;5004829;28;20126;-74
2021/05/27 07:23:11;;;;;;;27.30;18.90;;;8.40;99.90;;;;;;5021874;28;20405;-75
2021/05/27 07:25:39;;;;;;;21.58;16.00;;;8.50;99.90;;;;;;5016498;28;20033;-74
2021/05/27 07:28:08;;;;;;;20.55;14.90;;;8.60;99.90;;;;;;5016061;28;20049;-74
2021/05/27 07:30:39;;;;;;;22.73;16.80;;;8.60;99.90;;;;;;5014572;28;20124;-74
2021/05/27 07:33:07;;;;;;;23.70;15.95;;;8.50;99.90;;;;;;5044590;28;20052;-74
2021/05/27 07:35:36;;;;;;;19.77;14.63;;;8.60;99.90;;;;;;5022200;28;20142;-75
2021/05/27 07:38:08;;;;;;;22.70;15.02;;;8.60;99.90;;;;;;5008835;28;20045;-73
2021/05/27 07:40:36;;;;;;;19.95;12.70;;;8.70;99.90;;;;;;5027526;28;20044;-73
2021/05/27 07:43:04;;;;;;;15.23;11.35;;;8.60;99.90;;;;;;5014930;28;20041;-73
2021/05/27 07:45:32;;;;;;;18.23;13.20;;;8.60;99.90;;;;;;5023731;28;20451;-74
2021/05/27 07:48:01;;;;;;;13.52;11.23;;;8.70;99.90;;;;;;5012642;28;20144;-73
2021/05/27 07:50:29;;;;;;;19.33;12.45;;;8.70;99.90;;;;;;5015095;28;20114;-74
2021/05/27 07:52:58;;;;;;;14.60;10.50;;;8.70;99.90;;;;;;5004834;28;20041;-73
2021/05/27 07:55:28;;;;;;;17.15;13.55;;;8.70;99.90;;;;;;5004159;28;20041;-72
2021/05/27 07:57:57;;;;;;;20.67;14.60;;;8.60;99.90;;;;;;5039309;28;20130;-74
2021/05/27 08:00:26;;;;;;;17.90;13.85;;;8.60;99.90;;;;;;5009856;28;20131;-73
2021/05/27 08:02:56;;;;;;;17.45;12.60;;;8.70;99.90;;;;;;5011604;28;20053;-74
2021/05/27 08:05:24;;;;;;;14.82;10.98;;;8.70;99.90;;;;;;5045559;28;20051;-74
2021/05/27 08:07:52;;;;;;;16.58;11.35;;;8.70;99.90;;;;;;5045177;28;20049;-74
2021/05/27 08:10:20;;;;;;;16.33;11.60;;;8.60;99.90;;;;;;5019669;28;20049;-74
2021/05/27 08:12:48;;;;;;;14.52;10.57;;;8.70;99.90;;;;;;5039086;28;20047;-74
2021/05/27 08:15:35;;;;;;;16.10;11.27;;;8.70;99.90;;;;;;5038652;28;20053;-73
2021/05/27 08:18:03;;;;;;;14.95;11.13;;;8.80;99.90;;;;;;5044684;28;20043;-74
2021/05/27 08:20:32;;;;;;;16.73;11.75;;;8.80;99.90;;;;;;5000068;28;20084;-74
2021/05/27 08:23:01;;;;;;;17.55;12.65;;;8.80;99.90;;;;;;5003053;28;20463;-75
2021/05/27 08:25:44;;;;;;;19.25;13.32;;;8.80;99.90;;;;;;5021934;28;20204;-73
2021/05/27 08:28:13;;;;;;;16.55;11.88;;;8.80;99.90;;;;;;5012559;28;20049;-73
2021/05/27 08:30:42;;;;;;;19.27;12.80;;;8.80;99.90;;;;;;5022325;28;20051;-73
2021/05/27 08:33:18;;;;;;;17.98;12.63;;;8.70;99.90;;;;;;5003362;28;20052;-74
2021/05/27 08:35:47;;;;;;;16.48;11.05;;;8.70;99.90;;;;;;5026714;28;20049;-75
2021/05/27 08:38:16;;;;;;;17.70;12.18;;;8.60;99.90;;;;;;5028294;28;20063;-75
2021/05/27 08:40:43;;;;;;;22.00;14.02;;;8.50;99.90;;;;;;5027438;28;20445;-73
2021/05/27 08:43:13;;;;;;;16.23;12.70;;;8.50;99.90;;;;;;5026833;28;20132;-74
2021/05/27 08:45:41;;;;;;;18.17;13.30;;;8.60;99.90;;;;;;5042893;28;20079;-74
2021/05/27 08:48:16;;;;;;;15.73;12.48;;;8.60;99.90;;;;;;5025161;28;20541;-73
2021/05/27 08:50:47;;;;;;;15.00;12.18;;;8.80;99.90;;;;;;5014968;28;20051;-72
2021/05/27 08:53:19;;;;;;;15.77;11.15;;;8.80;99.90;;;;;;5028430;28;20071;-72
2021/05/27 08:55:51;;;;;;;13.35;10.48;;;8.90;99.90;;;;;;5013748;28;20041;-72
2021/05/27 08:58:42;;;;;;;22.90;14.32;;;8.80;99.90;;;;;;5011333;28;20230;-72
2021/05/27 09:01:09;;;;;;;18.73;14.02;;;8.80;99.90;;;;;;5043195;28;20651;-74
2021/05/27 09:03:44;;;;;;;18.17;12.07;;;8.80;99.90;;;;;;5020115;28;20043;-73
2021/05/27 09:06:19;;;;;;;15.30;11.82;;;8.90;99.90;;;;;;5025974;28;20044;-73
2021/05/27 09:08:48;;;;;;;17.40;12.80;;;8.90;99.90;;;;;;5009886;28;20156;-73
2021/05/27 09:11:24;;;;;;;19.73;13.60;;;8.90;99.90;;;;;;5025148;28;20075;-74
2021/05/27 09:13:59;;;;;;;18.45;13.20;;;8.90;99.90;;;;;;5027175;28;20054;-73
2021/05/27 09:16:27;;;;;;;18.83;13.07;;;9.00;99.90;;;;;;5024935;28;20592;-72
2021/05/27 09:18:55;;;;;;;14.82;10.63;;;8.90;99.90;;;;;;5048470;28;20048;-73
2021/05/27 09:21:35;;;;;;;19.77;12.38;;;8.90;99.90;;;;;;5000917;28;20086;-74
2021/05/27 09:24:04;;;;;;;17.35;12.85;;;9.00;99.90;;;;;;5028433;28;20056;-74
2021/05/27 09:26:32;;;;;;;19.83;13.00;;;9.10;99.90;;;;;;5030479;28;20097;-72
2021/05/27 09:29:12;;;;;;;19.58;11.07;;;9.00;99.90;;;;;;5026690;28;20048;-72
2021/05/27 09:32:04;;;;;;;13.98;10.88;;;9.00;99.90;;;;;;5037943;28;20063;-75
2021/05/27 09:34:54;;;;;;;17.50;14.32;;;9.00;99.90;;;;;;4999493;28;20049;-74
2021/05/27 09:37:29;;;;;;;16.70;12.88;;;9.00;99.90;;;;;;5023970;28;20144;-75
2021/05/27 09:39:59;;;;;;;11.50;9.52;;;9.00;99.90;;;;;;5044011;28;20220;-74
2021/05/27 09:42:29;;;;;;;20.42;12.23;;;9.10;99.90;;;;;;5043552;28;20040;-74
2021/05/27 09:45:26;;;;;;;14.07;11.63;;;9.10;99.90;;;;;;5007792;28;20033;-75
2021/05/27 09:47:59;;;;;;;17.35;13.27;;;9.20;99.90;;;;;;4994366;28;20069;-75
2021/05/27 09:50:32;;;;;;;18.17;13.95;;;9.20;99.90;;;;;;5051504;28;20045;-75
2021/05/27 09:53:17;;;;;;;13.23;11.77;;;9.30;99.90;;;;;;5021452;28;20607;-74
2021/05/27 09:55:47;;;;;;;18.08;12.93;;;9.30;99.90;;;;;;4995215;28;20049;-74
2021/05/27 09:58:16;;;;;;;11.90;10.43;;;9.30;99.90;;;;;;5016851;28;20060;-74
2021/05/27 10:00:44;;;;;;;18.10;12.70;;;9.20;99.90;;;;;;5026782;28;20037;-74
2021/05/27 10:03:27;;;;;;;20.17;13.88;;;9.10;99.90;;;;;;5041405;28;20485;-74
2021/05/27 10:05:56;;;;;;;13.90;10.63;;;9.20;99.90;;;;;;5037899;28;20322;-73
2021/05/27 10:08:23;;;;;;;15.80;11.65;;;9.20;99.90;;;;;;5017458;28;20053;-74
2021/05/27 10:11:06;;;;;;;17.38;13.15;;;9.10;99.90;;;;;;5040977;28;20045;-74
2021/05/27 10:13:34;;;;;;;18.67;12.98;;;9.20;99.90;;;;;;5003746;28;20095;-75
2021/05/27 10:16:01;;;;;;;18.05;14.70;;;9.10;99.90;;;;;;5040513;28;20045;-75
2021/05/27 10:18:28;;;;;;;23.60;16.95;;;9.20;99.90;;;;;;5036178;28;20731;-75
2021/05/27 10:20:56;;;;;;;18.15;14.50;;;9.20;99.90;;;;;;5057405;28;20037;-73
2021/05/27 10:23:25;;;;;;;21.10;15.63;;;9.20;99.90;;;;;;4994816;28;20061;-73
2021/05/27 10:25:56;;;;;;;20.27;15.88;;;9.20;99.90;;;;;;5023867;28;20036;-74
2021/05/27 10:28:25;;;;;;;20.13;16.60;;;9.30;99.90;;;;;;5001288;28;20042;-74
2021/05/27 10:30:57;;;;;;;23.33;17.98;;;9.20;99.90;;;;;;5008581;28;20045;-75
2021/05/27 10:33:25;;;;;;;26.92;17.13;;;9.10;99.90;;;;;;5029875;28;20053;-73
2021/05/27 10:36:05;;;;;;;21.98;15.95;;;9.10;99.90;;;;;;5049419;28;20041;-74
2021/05/27 10:38:42;;;;;;;27.92;20.17;;;9.10;99.90;;;;;;5056288;28;20037;-74
2021/05/27 10:41:42;;;;;;;23.02;17.85;;;9.10;99.90;;;;;;5034301;28;20058;-75
2021/05/27 10:44:14;;;;;;;22.63;17.13;;;9.10;99.90;;;;;;5024198;28;20049;-74
2021/05/27 10:46:42;;;;;;;26.80;20.38;;;9.10;99.90;;;;;;5017708;28;20049;-74
2021/05/27 10:49:14;;;;;;;27.33;19.83;;;9.20;99.90;;;;;;5014337;28;20397;-75
2021/05/27 10:51:46;;;;;;;23.88;17.85;;;9.20;99.90;;;;;;5029558;28;20144;-75
2021/05/27 10:54:16;;;;;;;25.70;19.92;;;9.30;99.90;;;;;;5011573;28;20673;-75
2021/05/27 10:56:47;;;;;;;22.90;17.58;;;9.40;99.90;;;;;;5022548;28;20040;-74
2021/05/27 10:59:19;;;;;;;26.50;20.60;;;9.40;99.90;;;;;;5011634;28;20267;-74
2021/05/27 11:01:46;;;;;;;22.80;17.00;;;9.40;99.90;;;;;;5021218;28;20060;-73
2021/05/27 11:04:40;;;;;;;29.20;21.08;;;9.40;99.90;;;;;;5011066;28;20106;-73
2021/05/27 11:07:22;;;;;;;22.45;17.52;;;9.40;99.90;;;;;;5024601;28;20124;-75
2021/05/27 11:09:53;;;;;;;30.65;21.92;;;9.30;99.90;;;;;;5008016;28;20131;-74
2021/05/27 11:12:29;;;;;;;29.73;18.70;;;9.30;99.90;;;;;;5007402;28;20059;-76
2021/05/27 11:15:08;;;;;;;26.35;18.90;;;9.30;99.90;;;;;;5029187;28;20044;-73
2021/05/27 11:17:37;;;;;;;28.02;19.63;;;9.30;99.90;;;;;;4989929;28;20037;-73
2021/05/27 11:20:26;;;;;;;27.13;20.60;;;9.30;99.90;;;;;;5011311;28;20044;-73
2021/05/27 11:22:58;;;;;;;26.70;19.17;;;9.30;99.90;;;;;;5026414;28;20608;-74
2021/05/27 11:25:29;;;;;;;29.30;21.13;;;9.30;99.90;;;;;;5008534;28;20052;-73
2021/05/27 11:28:07;;;;;;;24.42;17.73;;;9.30;99.90;;;;;;5009405;28;20041;-73
2021/05/27 11:30:40;;;;;;;28.73;19.65;;;9.30;99.90;;;;;;5019041;28;20041;-74
2021/05/27 11:33:21;;;;;;;28.65;20.48;;;9.40;99.90;;;;;;5041605;28;20055;-73
2021/05/27 11:36:00;;;;;;;25.52;18.80;;;9.40;99.90;;;;;;5001879;28;20160;-73
2021/05/27 11:38:29;;;;;;;34.00;21.75;;;9.50;99.90;;;;;;5038780;28;20051;-74
2021/05/27 11:40:59;;;;;;;36.10;22.98;;;9.50;99.90;;;;;;5020145;28;20049;-73
2021/05/27 11:43:29;;;;;;;32.08;21.63;;;9.60;99.90;;;;;;5033095;28;20040;-73
2021/05/27 11:45:58;;;;;;;33.45;23.75;;;9.50;99.90;;;;;;5017215;28;20049;-73
2021/05/27 11:48:34;;;;;;;38.08;23.70;;;9.50;99.90;;;;;;4998443;28;20413;-73
2021/05/27 11:51:10;;;;;;;36.97;25.85;;;9.40;99.90;;;;;;5012159;28;20132;-74
2021/05/27 11:53:47;;;;;;;36.13;24.23;;;9.40;99.90;;;;;;5038597;28;20053;-74
2021/05/27 11:56:46;;;;;;;38.70;25.60;;;9.40;99.90;;;;;;5037190;28;20049;-74
2021/05/27 12:02:03;;;;;;;27.38;19.40;;;9.40;99.90;;;;;;5060384;28;20048;-73
2021/05/27 12:04:32;;;;;;;25.67;17.48;;;9.30;99.90;;;;;;5015048;28;20037;-73
2021/05/27 12:07:13;;;;;;;27.48;20.05;;;9.40;99.90;;;;;;5028345;28;20048;-73
2021/05/27 12:09:46;;;;;;;31.10;20.33;;;9.40;99.90;;;;;;5023084;28;20099;-73
2021/05/27 12:12:24;;;;;;;25.63;18.60;;;9.50;99.90;;;;;;5025500;28;20125;-74
2021/05/27 12:15:02;;;;;;;28.83;18.67;;;9.60;99.90;;;;;;5023865;28;20051;-73
2021/05/27 12:17:38;;;;;;;18.27;14.65;;;9.70;99.90;;;;;;5007400;28;20491;-74
2021/05/27 12:20:18;;;;;;;21.48;16.67;;;9.60;99.90;;;;;;5035071;28;20036;-74
2021/05/27 12:25:34;;;;;;;21.52;16.15;;;9.60;99.90;;;;;;4950861;28;20473;-78
2021/05/27 12:28:10;;;;;;;24.23;17.10;;;9.70;99.90;;;;;;4940465;28;20113;-75
2021/05/27 12:30:40;;;;;;;20.90;16.45;;;9.70;99.90;;;;;;4952433;28;20090;-74
2021/05/27 12:33:09;;;;;;;23.95;17.30;;;9.70;99.90;;;;;;4964220;28;20055;-75
2021/05/27 12:35:39;;;;;;;22.27;16.15;;;9.90;99.90;;;;;;4982592;28;20145;-73
2021/05/27 12:38:19;;;;;;;23.80;17.27;;;9.90;99.90;;;;;;4985919;28;20510;-76
2021/05/27 12:40:51;;;;;;;20.55;16.23;;;9.90;99.90;;;;;;4985088;28;20050;-74
2021/05/27 12:43:34;;;;;;;20.45;14.90;;;9.90;99.90;;;;;;4985961;28;20054;-74
2021/05/27 12:46:05;;;;;;;19.80;13.98;;;9.90;99.90;;;;;;4978847;28;20125;-74
2021/05/27 12:48:33;;;;;;;20.48;14.00;;;9.90;99.90;;;;;;4976811;28;20077;-74
2021/05/27 12:51:06;;;;;;;18.70;14.65;;;9.80;99.90;;;;;;4975812;28;20053;-74
2021/05/27 12:53:38;;;;;;;18.10;14.10;;;9.70;99.90;;;;;;4981995;28;20054;-74
2021/05/27 12:56:22;;;;;;;18.55;14.57;;;9.80;99.90;;;;;;4967250;28;20042;-75
2021/05/27 12:58:50;;;;;;;25.55;17.33;;;9.80;99.90;;;;;;4966035;28;20577;-74
2021/05/27 13:01:34;;;;;;;31.55;21.15;;;9.90;99.90;;;;;;4963740;28;20049;-74
2021/05/27 13:04:23;;;;;;;24.33;17.77;;;10.00;99.90;;;;;;4984455;28;20124;-74
2021/05/27 13:07:09;;;;;;;23.33;17.98;;;10.10;99.90;;;;;;4965371;28;20061;-72
2021/05/27 13:09:44;;;;;;;21.35;14.13;;;10.10;99.90;;;;;;4985557;28;20050;-72
2021/05/27 13:12:15;;;;;;;21.40;16.33;;;9.90;99.90;;;;;;4981962;28;20050;-72